createdAt,value
2023-01-17T00:04:39.515Z,598.84
2023-01-17T00:09:46.737Z,599.02
2023-01-17T00:14:54.232Z,599.06
2023-01-17T00:20:01.416Z,599.71
2023-01-17T00:25:08.666Z,600.82
2023-01-17T00:30:15.852Z,600.91
2023-01-17T00:35:23.029Z,601.07
2023-01-17T00:40:30.261Z,600.43
2023-01-17T00:45:37.485Z,600.05
2023-01-17T00:50:44.728Z,600.43
2023-01-17T00:55:51.979Z,600.59
2023-01-17T01:00:59.234Z,600.25
2023-01-17T01:06:06.359Z,598.67
2023-01-17T01:11:13.614Z,598.59
2023-01-17T01:16:20.958Z,598.22
2023-01-17T01:21:28.118Z,597.65
2023-01-17T01:26:35.525Z,597.61
2023-01-17T01:31:42.705Z,597.42
2023-01-17T01:36:49.870Z,597.66
2023-01-17T01:41:57.073Z,597.70
2023-01-17T01:47:04.283Z,597.61
2023-01-17T01:52:11.485Z,598.10
2023-01-17T01:57:18.776Z,597.94
2023-01-17T02:02:26.121Z,599.06
2023-01-17T02:07:33.302Z,598.74
2023-01-17T02:12:40.538Z,599.39
2023-01-17T02:17:47.748Z,599.69
2023-01-17T02:22:54.948Z,599.32
2023-01-17T02:28:02.163Z,599.56
2023-01-17T02:33:09.358Z,600.37
2023-01-17T02:38:16.617Z,600.99
2023-01-17T02:43:23.895Z,601.06
2023-01-17T02:48:31.040Z,601.97
2023-01-17T02:53:38.262Z,601.78
2023-01-17T02:58:45.489Z,602.06
2023-01-17T03:03:52.652Z,601.58
2023-01-17T03:08:59.879Z,601.95
2023-01-17T03:14:07.112Z,602.64
2023-01-17T03:19:14.302Z,602.21
2023-01-17T03:24:21.505Z,602.61
2023-01-17T03:29:28.760Z,603.01
2023-01-17T03:34:35.911Z,602.18
2023-01-17T03:39:43.104Z,602.29
2023-01-17T03:44:50.297Z,602.68
2023-01-17T03:49:57.434Z,601.99
2023-01-17T03:55:04.622Z,601.64
2023-01-17T04:00:11.907Z,602.19
2023-01-17T04:05:19.019Z,602.78
2023-01-17T04:10:26.179Z,603.88
2023-01-17T04:15:33.412Z,603.92
2023-01-17T04:20:40.624Z,604.72
2023-01-17T04:25:47.830Z,604.87
2023-01-17T04:30:55.062Z,605.87
2023-01-17T04:36:02.217Z,606.32
2023-01-17T04:41:09.440Z,606.74
2023-01-17T04:46:16.717Z,606.65
2023-01-17T04:51:23.890Z,605.29
2023-01-17T04:56:31.111Z,605.09
2023-01-17T05:01:38.522Z,604.83
2023-01-17T05:06:45.728Z,605.59
2023-01-17T05:11:52.973Z,606.02
2023-01-17T05:17:00.363Z,607.51
2023-01-17T05:22:07.671Z,608.07
2023-01-17T05:27:15.053Z,608.02
2023-01-17T05:32:22.551Z,607.53
2023-01-17T05:37:29.748Z,608.30
2023-01-17T05:42:37.026Z,609.24
2023-01-17T05:47:44.218Z,609.83
2023-01-17T05:52:51.330Z,610.84
2023-01-17T05:57:58.538Z,611.81
2023-01-17T06:03:05.784Z,612.45
2023-01-17T06:08:12.941Z,612.43
2023-01-17T06:13:20.150Z,611.92
2023-01-17T06:18:27.347Z,611.54
2023-01-17T06:23:34.564Z,611.96
2023-01-17T06:28:41.779Z,612.45
2023-01-17T06:33:49.008Z,611.52
2023-01-17T06:38:56.172Z,610.66
2023-01-17T06:44:03.404Z,610.33
2023-01-17T06:49:10.633Z,611.86
2023-01-17T06:54:17.734Z,612.51
2023-01-17T06:59:24.940Z,613.38
2023-01-17T07:04:32.130Z,614.52
2023-01-17T07:09:39.232Z,615.76
2023-01-17T07:14:46.412Z,616.37
2023-01-17T07:19:53.637Z,615.95
2023-01-17T07:25:00.816Z,616.74
2023-01-17T07:30:07.964Z,617.39
2023-01-17T07:35:15.159Z,616.93
2023-01-17T07:40:22.354Z,617.42
2023-01-17T07:45:29.545Z,616.50
2023-01-17T07:50:36.766Z,616.47
2023-01-17T07:55:43.902Z,616.63
2023-01-17T08:00:51.329Z,616.62
2023-01-17T08:05:58.417Z,617.06
2023-01-17T08:11:05.550Z,618.67
2023-01-17T08:16:12.778Z,619.61
2023-01-17T08:21:19.998Z,620.46
2023-01-17T08:26:27.179Z,622.05
2023-01-17T08:31:34.411Z,622.76
2023-01-17T08:36:41.603Z,623.22
2023-01-17T08:41:48.783Z,623.90
2023-01-17T08:46:55.986Z,624.92
2023-01-17T08:52:03.241Z,626.45
2023-01-17T08:57:10.400Z,627.24
2023-01-17T09:02:17.614Z,628.03
2023-01-17T09:07:24.857Z,629.10
2023-01-17T09:12:32.030Z,631.93
2023-01-17T09:17:39.222Z,631.87
2023-01-17T09:22:46.477Z,631.46
2023-01-17T09:27:53.627Z,632.23
2023-01-17T09:33:00.864Z,632.48
2023-01-17T09:38:08.117Z,631.01
2023-01-17T09:43:15.354Z,630.92
2023-01-17T09:48:22.547Z,630.75
2023-01-17T09:53:29.816Z,631.29
2023-01-17T09:58:36.968Z,631.60
2023-01-17T10:03:44.285Z,632.68
2023-01-17T10:08:51.408Z,634.09
2023-01-17T10:13:58.607Z,633.09
2023-01-17T10:19:05.783Z,634.29
2023-01-17T10:24:13.006Z,633.81
2023-01-17T10:29:21.197Z,634.16
2023-01-17T10:34:27.399Z,635.47
2023-01-17T10:39:34.631Z,636.91
2023-01-17T10:44:41.803Z,636.34
2023-01-17T10:49:49.016Z,637.88
2023-01-17T10:54:56.221Z,638.31
2023-01-17T11:00:03.397Z,639.20
2023-01-17T11:05:10.880Z,640.17
2023-01-17T11:10:18.110Z,640.94
2023-01-17T11:15:25.315Z,641.84
2023-01-17T11:20:32.444Z,642.83
2023-01-17T11:25:39.687Z,642.72
2023-01-17T11:30:46.864Z,643.14
2023-01-17T11:35:54.060Z,644.32
2023-01-17T11:41:01.267Z,645.67
2023-01-17T11:46:08.537Z,646.46
2023-01-17T11:51:15.709Z,647.92
2023-01-17T11:56:22.898Z,649.08
2023-01-17T12:01:30.076Z,650.89
2023-01-17T12:06:47.931Z,652.11
2023-01-17T12:11:44.542Z,653.28
2023-01-17T12:16:51.696Z,652.58
2023-01-17T12:21:58.933Z,653.77
2023-01-17T12:27:06.145Z,654.68
2023-01-17T12:32:13.333Z,654.82
2023-01-17T12:37:20.480Z,657.37
2023-01-17T12:42:27.702Z,658.88
2023-01-17T12:47:34.815Z,661.30
2023-01-17T12:52:42.022Z,661.60
2023-01-17T12:57:49.251Z,662.18
2023-01-17T13:02:56.408Z,663.33
2023-01-17T13:08:03.643Z,663.60
2023-01-17T13:13:10.874Z,664.46
2023-01-17T13:18:18.043Z,665.69
2023-01-17T13:23:25.286Z,666.17
2023-01-17T13:28:32.576Z,667.10
2023-01-17T13:33:39.766Z,666.83
2023-01-17T13:38:46.984Z,667.52
2023-01-17T13:43:54.260Z,667.56
2023-01-17T13:49:01.392Z,667.15
2023-01-17T13:54:08.630Z,667.27
2023-01-17T13:59:15.888Z,666.77
2023-01-17T14:04:23.118Z,667.08
2023-01-17T14:09:30.339Z,666.00
2023-01-17T14:14:37.701Z,665.70
2023-01-17T14:19:47.935Z,664.79
2023-01-17T14:24:55.088Z,665.14
2023-01-17T14:30:02.330Z,665.86
2023-01-17T14:35:09.513Z,665.85
2023-01-17T14:40:16.664Z,666.21
2023-01-17T14:45:23.915Z,665.95
2023-01-17T14:50:31.111Z,665.66
2023-01-17T14:55:38.362Z,664.22
2023-01-17T15:00:45.625Z,664.31
2023-01-17T15:05:52.728Z,663.19
2023-01-17T15:10:59.944Z,661.94
2023-01-17T15:16:07.426Z,661.74
2023-01-17T15:21:14.638Z,662.40
2023-01-17T15:26:21.841Z,663.72
2023-01-17T15:31:29.103Z,664.44
2023-01-17T15:36:36.254Z,663.82
2023-01-17T15:41:43.481Z,662.54
2023-01-17T15:46:50.715Z,661.13
2023-01-17T15:51:57.932Z,659.47
2023-01-17T15:57:05.077Z,659.16
2023-01-17T16:02:13.025Z,659.17
2023-01-17T16:07:20.015Z,658.47
2023-01-17T16:12:27.186Z,659.49
2023-01-17T16:17:34.429Z,658.38
2023-01-17T16:22:41.620Z,658.99
2023-01-17T16:27:49.237Z,658.85
2023-01-17T16:32:56.189Z,658.04
2023-01-17T16:38:03.328Z,657.45
2023-01-17T16:43:10.545Z,656.59
2023-01-17T16:48:19.386Z,655.47
2023-01-17T16:53:25.286Z,654.20
2023-01-17T16:58:32.276Z,652.97
2023-01-17T17:03:39.527Z,651.46
2023-01-17T17:08:46.665Z,651.36
2023-01-17T17:13:54.086Z,649.71
2023-01-17T17:19:01.421Z,647.05
2023-01-17T17:24:08.638Z,646.88
2023-01-17T17:29:15.900Z,646.02
2023-01-17T17:34:23.299Z,645.90
2023-01-17T17:39:30.331Z,644.40
2023-01-17T17:44:37.803Z,643.14
2023-01-17T17:49:45.176Z,642.96
2023-01-17T17:54:52.312Z,642.83
2023-01-17T17:59:59.608Z,643.19
2023-01-17T18:05:06.921Z,642.87
2023-01-17T18:10:14.040Z,642.39
2023-01-17T18:15:21.543Z,642.12
2023-01-17T18:20:30.118Z,642.15
2023-01-17T18:25:37.692Z,641.68
2023-01-17T18:30:45.308Z,641.21
2023-01-17T18:35:52.691Z,641.43
2023-01-17T18:41:00.126Z,641.33
2023-01-17T18:46:07.749Z,640.85
2023-01-17T18:51:15.380Z,641.66
2023-01-17T18:56:22.976Z,641.51
2023-01-17T19:01:30.749Z,641.97
2023-01-17T19:06:38.224Z,642.87
2023-01-17T19:11:45.813Z,642.94
2023-01-17T19:16:53.528Z,642.28
2023-01-17T19:22:01.175Z,642.46
2023-01-17T19:27:08.674Z,641.11
2023-01-17T19:32:16.373Z,640.38
2023-01-17T19:37:24.009Z,639.59
2023-01-17T19:42:31.600Z,639.11
2023-01-17T19:47:39.213Z,640.34
2023-01-17T19:52:46.632Z,639.74
2023-01-17T19:57:54.365Z,639.31
2023-01-17T20:03:01.385Z,639.70
2023-01-17T20:08:08.986Z,639.67
2023-01-17T20:13:16.288Z,638.66
2023-01-17T20:18:23.781Z,638.40
2023-01-17T20:23:31.150Z,638.00
2023-01-17T20:28:38.387Z,637.49
2023-01-17T20:33:45.898Z,637.03
2023-01-17T20:38:53.646Z,636.63
2023-01-17T20:44:01.046Z,636.50
2023-01-17T20:49:08.384Z,636.76
2023-01-17T20:54:15.710Z,637.01
2023-01-17T20:59:22.861Z,637.12
2023-01-17T21:04:30.074Z,636.48
2023-01-17T21:09:37.238Z,635.72
2023-01-17T21:14:44.476Z,635.38
2023-01-17T21:19:51.713Z,634.88
2023-01-17T21:24:58.907Z,636.19
2023-01-17T21:30:06.277Z,636.52
2023-01-17T21:35:13.656Z,636.02
2023-01-17T21:40:20.925Z,636.00
2023-01-17T21:45:28.116Z,636.50
2023-01-17T21:50:35.345Z,636.18
2023-01-17T21:55:42.539Z,635.71
2023-01-17T22:00:49.736Z,635.00
2023-01-17T22:05:56.894Z,635.93
2023-01-17T22:11:04.541Z,635.56
2023-01-17T22:16:11.766Z,634.67
2023-01-17T22:21:18.867Z,634.79
2023-01-17T22:26:26.190Z,635.15
2023-01-17T22:31:33.360Z,634.80
2023-01-17T22:36:40.525Z,635.04
2023-01-17T22:41:47.811Z,635.57
2023-01-17T22:46:54.993Z,636.28
2023-01-17T22:52:02.201Z,636.45
2023-01-17T22:57:09.421Z,637.02
2023-01-17T23:02:16.767Z,636.97
2023-01-17T23:07:23.778Z,636.77
2023-01-17T23:12:31.037Z,636.39
2023-01-17T23:17:38.223Z,636.83
2023-01-17T23:22:45.410Z,636.79
2023-01-17T23:27:52.708Z,635.81
2023-01-17T23:33:00.234Z,636.12
2023-01-17T23:38:06.991Z,635.41
2023-01-17T23:43:14.245Z,634.64
2023-01-17T23:48:21.461Z,635.56
2023-01-17T23:53:28.680Z,635.45
2023-01-17T23:58:35.857Z,634.61
